Belfry, Montana
Current Conditions -  °F | °C
As of 7:35 PM on Tuesday 25 Nov 2014 (Local Time) from KPOY Reporting Station
Light Snow Light Snow  
Wind Chill: 10°   Ceiling: 800
Heat Index: 25°   Visibility: 2.5mi
Dew Point: 23°   Wind: 21mph
Humidity: 93%   Direction: 330°NNW
Pressure: 30.07"   Gusts: NA
Location:  45.14°N, 109.01°W
Report Text: KPOY 260235Z AUTO 33018KT 2 1/2SM -SN BKN008 OVC012 M04/M05 A3007 RMK AO2
Loading
Personal Weather Stations






























Interactive Weather Map New forecast layout! Learn more

10-Day Weather Forecast

Advertisements
Track Severe Weather on mobile